Time;durP1;ratioP1;P1;durP2;ratioP2;P2;SDS_P1;SDS_P2;PMS_P1;PMS_P2;Temp;Humidity;BMP_temperature;BMP_pressure;BME280_temperature;BME280_humidity;BME280_pressure;Samples;Min_cycle;Max_cycle;Signal;HPM_P1;HPM_P2
2023/05/08 00:01:40;;;;;;;6.30;5.00;;;;;;;5.03;95.42;97324.67;106695;1285;138216;-84
2023/05/08 00:04:08;;;;;;;5.40;4.90;;;;;;;4.98;94.96;97326.48;106814;1284;23964;-84
2023/05/08 00:06:35;;;;;;;7.80;5.60;;;;;;;4.94;95.06;97323.23;106656;1271;22699;-84
2023/05/08 00:09:12;;;;;;;6.60;5.20;;;;;;;4.93;95.20;97317.31;106685;1284;138268;-84
2023/05/08 00:12:38;;;;;;;6.40;5.40;;;;;;;4.94;95.33;97314.99;109809;1278;22170;-86
2023/05/08 00:15:15;;;;;;;5.60;5.10;;;;;;;4.91;94.87;97314.00;107809;1277;138851;-84
2023/05/08 00:17:48;;;;;;;5.40;4.80;;;;;;;4.91;94.62;97315.70;106756;1280;26648;-84
2023/05/08 00:20:22;;;;;;;6.70;5.80;;;;;;;4.93;95.30;97315.94;106674;1285;136932;-84
2023/05/08 00:22:56;;;;;;;5.60;4.80;;;;;;;4.96;95.28;97318.05;106742;1280;22539;-84
2023/05/08 00:25:30;;;;;;;5.60;5.00;;;;;;;4.96;94.82;97315.85;106631;1264;138147;-84
2023/05/08 00:27:59;;;;;;;5.80;5.10;;;;;;;4.94;94.62;97316.54;106747;1285;23037;-84
2023/05/08 00:30:32;;;;;;;5.30;4.80;;;;;;;4.95;94.52;97318.66;107082;1285;22532;-84
2023/05/08 00:33:05;;;;;;;6.40;5.80;;;;;;;4.94;94.64;97320.42;106651;1282;138709;-84
2023/05/08 00:35:40;;;;;;;5.10;4.60;;;;;;;4.94;94.27;97320.94;106698;1283;24256;-84
2023/05/08 00:38:12;;;;;;;5.80;4.20;;;;;;;4.95;94.44;97324.33;106713;1285;137897;-84
2023/05/08 00:40:42;;;;;;;4.90;4.40;;;;;;;4.94;94.08;97323.70;106754;1284;24273;-84
2023/05/08 00:43:14;;;;;;;4.50;3.90;;;;;;;4.94;94.23;97326.95;106635;1285;138047;-85
2023/05/08 00:45:53;;;;;;;4.20;3.70;;;;;;;4.93;94.09;97326.73;106743;1278;22612;-84
2023/05/08 00:48:22;;;;;;;6.10;4.90;;;;;;;4.87;93.54;97330.09;106616;1285;22553;-85
2023/05/08 00:51:00;;;;;;;4.50;4.10;;;;;;;4.86;93.89;97327.95;106689;1285;138050;-84
2023/05/08 00:53:30;;;;;;;4.20;3.80;;;;;;;4.83;93.80;97327.99;106746;1285;22571;-84
2023/05/08 00:55:57;;;;;;;5.20;4.60;;;;;;;4.82;93.67;97325.81;106618;1285;138358;-84
2023/05/08 00:58:26;;;;;;;4.90;4.40;;;;;;;4.86;93.97;97325.59;106796;1284;24934;-84
2023/05/08 01:00:55;;;;;;;5.00;3.40;;;;;;;4.87;93.64;97327.90;106735;1278;25353;-84
2023/05/08 01:03:22;;;;;;;4.30;3.60;;;;;;;4.81;93.19;97320.98;106695;1275;138667;-84
2023/05/08 01:05:48;;;;;;;4.10;3.70;;;;;;;4.77;92.76;97325.45;106608;1280;26100;-84
2023/05/08 01:08:14;;;;;;;4.50;4.00;;;;;;;4.75;92.83;97324.20;106592;1278;137907;-84
2023/05/08 01:11:14;;;;;;;3.90;3.50;;;;;;;4.76;93.17;97328.27;106838;1278;22633;-84
2023/05/08 01:13:52;;;;;;;4.60;3.90;;;;;;;4.77;93.62;97331.77;106666;1285;138521;-84
2023/05/08 01:16:33;;;;;;;5.10;4.30;;;;;;;4.76;93.70;97334.23;106719;1284;25549;-84
2023/05/08 01:19:17;;;;;;;3.70;3.30;;;;;;;4.78;94.13;97337.55;106839;1281;24249;-84
2023/05/08 01:22:43;;;;;;;4.30;4.00;;;;;;;4.78;94.53;97336.85;109661;1280;22330;-85
2023/05/08 01:26:34;;;;;;;5.40;4.40;;;;;;;4.73;94.68;97337.21;109794;1277;23060;-85
2023/05/08 01:29:59;;;;;;;5.70;5.00;;;;;;;4.70;94.93;97337.41;109813;1277;22180;-85
2023/05/08 01:33:11;;;;;;;5.10;4.70;;;;;;;4.71;94.45;97338.73;106731;1284;137973;-85
2023/05/08 01:35:40;;;;;;;;;;;;;;;4.72;94.71;97341.79;106772;1283;23546;-84
2023/05/08 01:38:14;;;;;;;5.70;5.20;;;;;;;4.73;94.78;97343.59;106721;1284;125354;-84
2023/05/08 01:40:52;;;;;;;5.50;4.90;;;;;;;4.72;94.92;97342.14;106734;1278;22544;-84
2023/05/08 01:43:26;;;;;;;5.80;5.30;;;;;;;4.73;95.09;97344.96;106623;1282;138028;-84
2023/05/08 01:45:52;;;;;;;5.00;4.40;;;;;;;4.77;95.42;97348.73;106719;1283;22533;-84
2023/05/08 01:48:28;;;;;;;5.50;4.90;;;;;;;4.78;95.04;97344.23;106764;1278;22780;-84
2023/05/08 01:51:28;;;;;;;5.20;4.30;;;;;;;4.75;93.86;97346.69;109694;1278;138420;-85
2023/05/08 01:54:44;;;;;;;4.60;4.20;;;;;;;4.74;93.88;97343.21;109722;1278;22482;-85
2023/05/08 01:57:17;;;;;;;4.20;3.10;;;;;;;4.75;93.67;97339.52;107569;1285;138505;-84
2023/05/08 01:59:50;;;;;;;3.30;3.00;;;;;;;4.74;93.58;97338.39;106746;1285;24263;-84
2023/05/08 02:02:19;;;;;;;3.70;3.40;;;;;;;4.76;93.31;97337.48;106609;1279;138612;-84
2023/05/08 02:04:46;;;;;;;3.90;3.10;;;;;;;4.78;93.09;97340.96;106705;1274;22550;-84
2023/05/08 02:07:14;;;;;;;3.20;2.90;;;;;;;4.78;92.97;97342.30;106688;1280;22586;-84
2023/05/08 02:09:44;;;;;;;3.60;3.20;;;;;;;4.78;92.47;97340.96;106621;1285;137748;-84
2023/05/08 02:12:15;;;;;;;3.70;3.10;;;;;;;4.78;92.41;97342.32;106766;1285;22532;-83
2023/05/08 02:14:42;;;;;;;3.10;2.80;;;;;;;4.79;92.85;97340.65;106615;1278;138408;-84
2023/05/08 02:17:13;;;;;;;3.50;2.50;;;;;;;4.82;92.37;97339.42;106784;1285;24250;-84
2023/05/08 02:19:42;;;;;;;3.90;3.20;;;;;;;4.86;91.99;97345.16;106664;1278;138176;-84
2023/05/08 02:22:08;;;;;;;3.80;3.00;;;;;;;4.89;92.40;97346.31;106670;1278;22555;-84
2023/05/08 02:24:34;;;;;;;3.80;3.40;;;;;;;4.86;92.39;97346.14;106797;1283;24217;-84
2023/05/08 02:27:06;;;;;;;4.70;3.50;;;;;;;4.87;92.42;97344.88;106631;1286;137874;-83
2023/05/08 02:29:43;;;;;;;4.90;4.40;;;;;;;4.90;93.77;97348.48;106759;1282;24276;-84
2023/05/08 02:32:10;;;;;;;6.60;5.00;;;;;;;4.91;93.75;97345.64;106599;1284;139119;-83
2023/05/08 02:34:42;;;;;;;6.10;4.50;;;;;;;4.93;93.90;97349.36;106759;1280;24353;-84
2023/05/08 02:37:08;;;;;;;6.00;5.10;;;;;;;4.97;94.12;97348.36;106815;1264;22543;-84
2023/05/08 02:39:34;;;;;;;5.60;5.00;;;;;;;4.98;94.56;97342.27;106616;1285;137958;-84
2023/05/08 02:42:01;;;;;;;6.00;5.50;;;;;;;4.93;94.07;97342.72;106699;1285;24217;-84
2023/05/08 02:44:30;;;;;;;6.90;6.10;;;;;;;4.90;94.23;97346.71;106617;1284;138393;-83
2023/05/08 02:47:02;;;;;;;7.00;5.40;;;;;;;4.93;94.66;97346.67;106738;1285;22851;-84
2023/05/08 02:49:54;;;;;;;7.10;6.40;;;;;;;4.93;95.16;97347.03;106756;1281;138600;-84
2023/05/08 02:52:50;;;;;;;7.50;6.00;;;;;;;4.89;94.57;97347.67;106727;1285;22624;-84
2023/05/08 02:55:29;;;;;;;7.00;6.10;;;;;;;4.85;95.08;97348.98;106774;1278;25235;-84
2023/05/08 02:58:37;;;;;;;;;;;;;;;;;;;;;
2023/05/08 03:02:07;;;;;;;6.70;5.40;;;;;;;4.75;95.25;97355.12;109798;1283;22343;-84
2023/05/08 03:05:37;;;;;;;6.80;5.10;;;;;;;4.72;95.30;97352.10;109760;1285;22587;-84
2023/05/08 03:08:57;;;;;;;5.50;5.00;;;;;;;4.75;94.81;97352.52;109612;1278;138688;-84
2023/05/08 03:12:09;;;;;;;;;;;;;;;;;;;;;
2023/05/08 03:15:33;;;;;;;6.20;5.60;;;;;;;4.73;94.98;97352.71;108227;1285;137557;-84
2023/05/08 03:18:06;;;;;;;7.10;5.30;;;;;;;4.71;94.94;97353.54;106791;1285;22624;-84
2023/05/08 03:21:31;;;;;;;;;;;;;;;;;;;;;
2023/05/08 03:24:48;;;;;;;6.30;5.20;;;;;;;4.73;94.61;97352.55;108546;1284;24080;-84
2023/05/08 03:27:15;;;;;;;5.60;4.70;;;;;;;4.69;94.30;97361.73;106599;1285;137855;-84
2023/05/08 03:29:44;;;;;;;5.10;4.10;;;;;;;4.67;94.23;97359.88;106739;1285;25624;-84
2023/05/08 03:32:15;;;;;;;6.40;4.90;;;;;;;4.71;94.52;97363.45;106655;1284;138699;-84
2023/05/08 03:34:44;;;;;;;5.40;4.90;;;;;;;4.73;94.52;97364.02;106517;1284;339983;-83
2023/05/08 03:37:10;;;;;;;7.30;4.90;;;;;;;4.68;94.32;97370.05;106717;1262;22547;-84
2023/05/08 03:39:36;;;;;;;6.00;5.00;;;;;;;4.63;94.40;97369.79;106626;1274;137124;-84
2023/05/08 03:42:05;;;;;;;6.10;4.60;;;;;;;4.61;94.61;97371.89;106666;1285;22567;-84
2023/05/08 03:44:32;;;;;;;5.50;4.90;;;;;;;4.59;94.57;97370.93;106613;1285;137815;-84
2023/05/08 03:46:58;;;;;;;5.10;4.50;;;;;;;4.59;94.44;97372.36;106765;1285;24268;-84
2023/05/08 03:49:25;;;;;;;6.90;4.60;;;;;;;4.59;94.46;97372.20;106778;1285;23046;-84
2023/05/08 03:52:32;;;;;;;4.50;4.10;;;;;;;4.56;94.31;97373.62;109675;1285;137820;-84
2023/05/08 03:55:01;;;;;;;6.50;4.90;;;;;;;4.58;94.34;97372.78;107144;1279;22536;-84
2023/05/08 03:57:47;;;;;;;5.00;4.50;;;;;;;4.58;94.74;97369.64;106605;1285;137788;-83
2023/05/08 04:00:35;;;;;;;4.90;4.20;;;;;;;4.59;94.50;97370.46;106685;1282;23457;-84
2023/05/08 04:03:54;;;;;;;5.80;4.20;;;;;;;4.54;94.20;97373.57;109607;1278;137467;-84
2023/05/08 04:06:58;;;;;;;5.70;4.90;;;;;;;4.48;93.71;97370.45;109621;1285;22198;-84
2023/05/08 04:10:24;;;;;;;6.40;4.00;;;;;;;4.47;93.77;97376.19;109703;1281;138897;-84
2023/05/08 04:13:56;;;;;;;5.50;4.60;;;;;;;4.47;93.25;97383.54;109457;1286;22596;-85
2023/05/08 04:16:28;;;;;;;4.50;4.10;;;;;;;4.48;93.08;97386.76;106874;1280;24213;-84
2023/05/08 04:18:59;;;;;;;4.30;3.90;;;;;;;4.49;93.32;97387.20;106720;1285;22663;-83
2023/05/08 04:21:28;;;;;;;4.80;4.20;;;;;;;4.51;93.35;97391.31;106604;1283;137620;-84
2023/05/08 04:24:04;;;;;;;4.70;4.20;;;;;;;4.52;93.77;97389.34;106793;1284;25305;-84
2023/05/08 04:26:39;;;;;;;4.20;3.80;;;;;;;4.51;93.29;97392.02;106654;1281;137192;-84
2023/05/08 04:29:05;;;;;;;4.30;3.90;;;;;;;4.48;92.85;97400.80;106814;1284;25355;-83
2023/05/08 04:31:39;;;;;;;4.20;3.40;;;;;;;4.46;93.02;97398.36;106679;1282;137092;-83
2023/05/08 04:34:07;;;;;;;4.10;3.40;;;;;;;4.46;92.90;97400.26;106870;1284;22665;-84
2023/05/08 04:36:36;;;;;;;3.60;3.30;;;;;;;4.47;91.87;97406.20;106761;1282;22658;-84
2023/05/08 04:39:49;;;;;;;3.70;3.10;;;;;;;4.44;91.78;97402.47;108383;1285;138227;-84
2023/05/08 04:43:08;;;;;;;;;;;;;;;;;;;;;
2023/05/08 04:46:00;;;;;;;4.40;3.70;;;;;;;4.43;91.94;97419.92;108429;1282;137300;-84
2023/05/08 04:48:38;;;;;;;4.00;3.60;;;;;;;4.44;92.14;97422.05;106762;1284;22544;-84
2023/05/08 04:51:14;;;;;;;4.10;3.70;;;;;;;4.50;92.51;97422.30;106647;1284;138105;-84
2023/05/08 04:53:49;;;;;;;4.40;3.60;;;;;;;4.52;92.38;97422.29;106844;1285;24358;-83
2023/05/08 04:56:18;;;;;;;4.80;3.60;;;;;;;4.52;92.24;97422.59;106590;1285;138386;-84
2023/05/08 04:58:44;;;;;;;4.50;4.10;;;;;;;4.54;92.58;97432.25;106635;1283;24290;-84
2023/05/08 05:01:13;;;;;;;4.50;4.10;;;;;;;4.53;92.22;97434.92;106742;1285;25309;-84
2023/05/08 05:03:46;;;;;;;4.20;3.90;;;;;;;4.53;92.66;97434.91;106550;1283;137376;-84
2023/05/08 05:06:12;;;;;;;4.70;3.90;;;;;;;4.50;92.67;97437.36;106783;1284;22626;-84
2023/05/08 05:08:39;;;;;;;5.10;3.70;;;;;;;4.46;92.37;97434.27;106670;1274;137940;-83
2023/05/08 05:11:08;;;;;;;4.90;3.50;;;;;;;4.42;92.15;97440.91;106711;1278;22618;-84
2023/05/08 05:13:39;;;;;;;3.80;3.50;;;;;;;4.45;92.63;97439.83;106616;1285;138139;-85
2023/05/08 05:16:12;;;;;;;4.70;4.20;;;;;;;4.47;92.24;97443.77;106719;1285;22539;-84
2023/05/08 05:18:41;;;;;;;4.30;3.20;;;;;;;4.47;92.52;97442.37;106769;1279;22537;-84
2023/05/08 05:21:10;;;;;;;3.90;3.60;;;;;;;4.46;91.87;97441.33;106693;1284;138367;-84
2023/05/08 05:23:42;;;;;;;4.20;3.80;;;;;;;4.45;92.36;97442.19;106725;1282;24356;-84
2023/05/08 05:26:09;;;;;;;4.00;3.60;;;;;;;4.43;92.32;97447.20;106712;1283;137350;-84
2023/05/08 05:28:40;;;;;;;3.80;3.50;;;;;;;4.45;92.92;97442.05;106715;1285;23411;-84
2023/05/08 05:31:08;;;;;;;4.40;4.00;;;;;;;4.47;92.35;97442.79;106667;1284;22652;-84
2023/05/08 05:33:34;;;;;;;3.80;3.50;;;;;;;4.50;91.70;97449.52;106548;1286;138326;-84
2023/05/08 05:36:04;;;;;;;3.60;3.30;;;;;;;4.54;92.38;97446.48;106732;1285;22706;-83
2023/05/08 05:38:33;;;;;;;5.40;3.70;;;;;;;4.59;92.32;97449.05;106596;1272;138592;-84
2023/05/08 05:40:59;;;;;;;4.10;3.70;;;;;;;4.64;92.52;97450.17;106853;1282;23007;-84
2023/05/08 05:43:25;;;;;;;4.50;4.10;;;;;;;4.68;92.58;97457.61;106720;1285;26528;-84
2023/05/08 05:46:38;;;;;;;6.90;5.00;;;;;;;4.67;91.91;97462.96;109562;1282;137832;-84
2023/05/08 05:49:38;;;;;;;4.00;3.60;;;;;;;4.66;92.22;97463.06;109754;1282;22409;-84
2023/05/08 05:52:04;;;;;;;5.50;4.80;;;;;;;4.65;91.76;97465.20;109746;1278;23023;-84
2023/05/08 05:54:43;;;;;;;4.70;4.30;;;;;;;4.70;92.45;97472.58;108732;1285;24426;-84
2023/05/08 05:57:09;;;;;;;5.90;4.70;;;;;;;4.71;92.03;97471.60;106618;1281;137821;-84
2023/05/08 05:59:37;;;;;;;6.00;5.00;;;;;;;4.74;92.20;97469.46;106775;1285;22577;-84
2023/05/08 06:02:06;;;;;;;5.90;5.20;;;;;;;4.80;92.69;97467.64;106671;1280;137959;-83
2023/05/08 06:04:37;;;;;;;6.50;5.70;;;;;;;4.81;92.09;97471.15;106692;1285;23012;-84
2023/05/08 06:07:03;;;;;;;6.90;5.10;;;;;;;4.81;92.49;97475.83;106797;1283;22645;-84
2023/05/08 06:09:32;;;;;;;6.70;5.50;;;;;;;4.84;92.36;97477.46;106742;1286;138070;-84
2023/05/08 06:11:58;;;;;;;6.00;5.30;;;;;;;4.83;92.65;97479.92;106752;1284;22992;-84
2023/05/08 06:14:24;;;;;;;7.50;6.20;;;;;;;4.84;92.63;97489.33;106684;1283;137101;-84
2023/05/08 06:16:51;;;;;;;7.30;5.90;;;;;;;4.82;92.24;97492.17;106712;1282;22540;-83
2023/05/08 06:19:18;;;;;;;7.00;6.10;;;;;;;4.82;93.20;97487.20;106749;1283;23019;-84
2023/05/08 06:21:49;;;;;;;6.60;6.00;;;;;;;4.79;92.09;97490.73;106625;1285;138046;-84
2023/05/08 06:24:17;;;;;;;;;;;;;;;4.78;92.42;97488.05;106743;1285;23167;-84
2023/05/08 06:26:43;;;;;;;7.60;5.70;;;;;;;4.78;92.07;97487.36;106668;1283;124400;-84
2023/05/08 06:29:09;;;;;;;8.80;6.00;;;;;;;4.78;92.13;97487.89;106789;1285;22565;-84
2023/05/08 06:31:36;;;;;;;7.80;6.60;;;;;;;4.79;92.03;97495.50;106622;1284;23372;-84
2023/05/08 06:34:08;;;;;;;6.20;5.50;;;;;;;4.83;92.54;97497.59;106708;1279;23919;-84
2023/05/08 06:36:41;;;;;;;9.90;6.70;;;;;;;4.90;92.30;97495.95;106816;1282;25245;-83
2023/05/08 06:39:12;;;;;;;7.50;6.80;;;;;;;4.92;92.55;97498.89;106638;1283;137084;-84
2023/05/08 06:41:39;;;;;;;7.80;6.80;;;;;;;4.90;92.69;97500.21;106760;1285;22643;-84
2023/05/08 06:44:08;;;;;;;8.60;6.30;;;;;;;4.90;92.43;97505.33;106781;1285;137913;-84
2023/05/08 06:46:37;;;;;;;7.60;6.40;;;;;;;4.90;92.85;97510.02;106751;1282;24246;-84
2023/05/08 06:49:05;;;;;;;6.20;5.60;;;;;;;4.92;92.55;97515.54;106714;1285;24347;-84
2023/05/08 06:51:34;;;;;;;6.90;5.70;;;;;;;4.95;92.32;97520.80;106559;1285;137820;-84
2023/05/08 06:54:07;;;;;;;7.60;6.00;;;;;;;4.95;92.02;97521.97;106702;1281;26618;-84
2023/05/08 06:56:34;;;;;;;8.40;6.30;;;;;;;4.93;91.47;97530.71;106569;1285;138586;-84
2023/05/08 06:59:00;;;;;;;8.20;5.90;;;;;;;4.93;91.72;97529.14;106644;1275;22532;-84
2023/05/08 07:01:27;;;;;;;6.90;6.00;;;;;;;4.94;91.58;97525.81;106781;1283;22537;-84
2023/05/08 07:04:00;;;;;;;7.50;6.40;;;;;;;4.95;91.25;97530.16;106586;1285;137815;-84
2023/05/08 07:06:32;;;;;;;7.70;6.60;;;;;;;4.98;91.67;97533.04;106716;1285;22558;-84
2023/05/08 07:09:02;;;;;;;7.00;6.30;;;;;;;5.01;92.08;97531.95;106672;1285;137697;-84
2023/05/08 07:11:36;;;;;;;8.70;6.60;;;;;;;5.05;92.14;97532.48;106695;1282;22580;-84
2023/05/08 07:14:07;;;;;;;9.40;5.80;;;;;;;5.11;92.56;97530.49;106619;1285;138039;-84
2023/05/08 07:16:36;;;;;;;6.50;5.80;;;;;;;5.13;91.86;97536.15;106700;1276;22563;-84
2023/05/08 07:19:08;;;;;;;7.10;6.50;;;;;;;5.16;91.23;97533.54;106756;1285;26526;-84
2023/05/08 07:21:37;;;;;;;;;;;;;;;5.15;90.40;97530.52;106685;1285;137966;-86
2023/05/08 07:24:08;;;;;;;5.90;5.10;;;;;;;5.14;90.75;97539.52;106714;1285;22558;-84
2023/05/08 07:26:36;;;;;;;6.40;5.80;;;;;;;5.17;90.61;97545.46;106654;1280;138448;-84
2023/05/08 07:29:07;;;;;;;6.40;5.80;;;;;;;5.19;89.30;97541.36;106769;1285;25281;-84
2023/05/08 07:31:37;;;;;;;6.20;5.60;;;;;;;5.19;89.29;97543.94;106664;1285;22582;-84
2023/05/08 07:34:06;;;;;;;5.90;5.30;;;;;;;5.20;89.89;97543.89;106782;1283;25394;-84
2023/05/08 07:36:35;;;;;;;8.30;6.50;;;;;;;5.20;89.94;97546.08;106735;1271;23981;-83
2023/05/08 07:39:04;;;;;;;6.20;5.20;;;;;;;5.25;89.98;97546.02;106640;1284;138201;-84
2023/05/08 07:41:35;;;;;;;5.60;5.10;;;;;;;5.30;88.56;97547.41;106699;1285;24244;-83
2023/05/08 07:44:09;;;;;;;6.90;5.10;;;;;;;5.32;88.19;97550.94;106592;1285;138618;-84
2023/05/08 07:46:37;;;;;;;5.90;5.00;;;;;;;5.35;87.22;97552.61;106756;1280;22677;-84
2023/05/08 07:49:06;;;;;;;6.10;4.60;;;;;;;5.41;87.62;97553.75;106721;1280;23194;-84
2023/05/08 07:51:40;;;;;;;4.60;4.00;;;;;;;5.41;86.73;97552.18;106645;1284;137140;-84
2023/05/08 07:54:11;;;;;;;6.00;3.90;;;;;;;5.44;87.45;97556.39;106727;1280;24007;-84
2023/05/08 07:56:49;;;;;;;4.80;4.00;;;;;;;5.50;87.21;97558.03;106596;1285;137220;-84
2023/05/08 07:59:20;;;;;;;5.40;4.50;;;;;;;5.56;87.33;97558.23;106651;1281;23032;-84
2023/05/08 08:01:52;;;;;;;4.40;3.70;;;;;;;5.61;87.29;97562.97;106665;1280;138335;-84
2023/05/08 08:04:25;;;;;;;5.60;3.90;;;;;;;5.67;87.22;97563.70;106858;1284;22690;-84
2023/05/08 08:06:58;;;;;;;5.60;4.10;;;;;;;5.75;86.28;97562.74;106760;1276;24432;-84
2023/05/08 08:09:32;;;;;;;6.40;4.70;;;;;;;5.78;86.82;97569.04;106593;1285;138231;-84
2023/05/08 08:12:03;;;;;;;5.40;4.90;;;;;;;5.82;86.93;97567.52;106779;1283;25344;-84
2023/05/08 08:14:36;;;;;;;6.30;5.80;;;;;;;5.86;86.38;97569.58;106702;1283;137810;-84
2023/05/08 08:17:13;;;;;;;5.10;4.60;;;;;;;5.85;86.21;97573.92;106768;1285;24248;-84
2023/05/08 08:19:45;;;;;;;5.80;4.70;;;;;;;5.86;85.78;97571.14;106595;1280;137900;-84
2023/05/08 08:22:18;;;;;;;4.90;4.40;;;;;;;5.82;85.30;97574.30;106730;1279;25366;-84
2023/05/08 08:24:47;;;;;;;4.90;4.40;;;;;;;5.80;85.49;97581.24;106841;1285;22477;-84
2023/05/08 08:27:21;;;;;;;6.60;4.20;;;;;;;5.82;85.21;97579.88;106508;1285;138006;-84
2023/05/08 08:29:50;;;;;;;6.90;4.40;;;;;;;5.86;85.20;97576.06;106737;1282;22681;-84
2023/05/08 08:32:21;;;;;;;4.90;4.40;;;;;;;5.96;86.19;97576.83;106543;1285;138138;-84
2023/05/08 08:34:50;;;;;;;5.20;4.00;;;;;;;6.03;84.48;97569.09;106712;1283;23791;-83
2023/05/08 08:37:22;;;;;;;4.30;3.90;;;;;;;6.11;85.24;97571.89;106778;1285;22563;-84
2023/05/08 08:39:59;;;;;;;4.40;3.60;;;;;;;6.19;84.07;97576.74;106780;1284;137572;-84
2023/05/08 08:42:41;;;;;;;3.80;3.40;;;;;;;6.25;82.50;97576.90;106736;1285;22609;-84
2023/05/08 08:45:13;;;;;;;7.20;3.80;;;;;;;6.32;83.54;97575.98;106605;1280;138488;-84
2023/05/08 08:47:46;;;;;;;4.60;4.20;;;;;;;6.46;83.92;97572.95;106658;1283;22540;-84
2023/05/08 08:50:20;;;;;;;8.40;5.80;;;;;;;6.58;83.52;97579.83;106621;1278;137763;-84
2023/05/08 08:52:59;;;;;;;6.40;4.60;;;;;;;6.65;83.97;97578.92;106764;1274;22631;-87
2023/05/08 08:55:47;;;;;;;7.80;6.10;;;;;;;6.66;83.15;97577.25;106663;1285;22572;-84
2023/05/08 08:59:29;;;;;;;7.60;5.30;;;;;;;6.67;83.82;97580.13;109782;1261;23271;-84
2023/05/08 09:02:34;;;;;;;;;;;;;;;;;;;;;
2023/05/08 09:05:38;;;;;;;;;;;;;;;;;;;;;
2023/05/08 09:08:30;;;;;;;6.30;4.10;;;;;;;6.91;81.93;97589.81;106655;1278;138306;-84
2023/05/08 09:11:09;;;;;;;;;;;;;;;6.99;81.96;97600.88;106740;1285;22520;-84
2023/05/08 09:14:08;;;;;;;;;;;;;;;;;;;;;
2023/05/08 09:16:41;;;;;;;5.90;3.90;;;;;;;7.11;82.35;97602.44;106724;1278;22554;-84
2023/05/08 09:19:22;;;;;;;4.20;3.70;;;;;;;7.12;80.70;97609.18;106753;1280;22549;-84
2023/05/08 09:21:51;;;;;;;3.60;3.20;;;;;;;7.06;80.13;97612.98;106652;1285;137283;-84
2023/05/08 09:24:20;;;;;;;3.30;2.80;;;;;;;7.05;79.84;97615.05;106820;1277;22568;-84
2023/05/08 09:26:50;;;;;;;3.90;3.00;;;;;;;7.09;80.60;97613.77;106799;1284;138367;-84
2023/05/08 09:29:20;;;;;;;4.50;3.00;;;;;;;7.17;80.05;97616.75;106725;1278;23336;-84
2023/05/08 09:31:53;;;;;;;4.20;3.40;;;;;;;7.21;78.94;97610.18;106806;1285;22565;-84
2023/05/08 09:34:31;;;;;;;4.00;3.60;;;;;;;7.26;79.19;97613.90;106780;1274;24317;-84
2023/05/08 09:37:40;;;;;;;;;;;;;;;;;;;;;
2023/05/08 09:40:50;;;;;;;4.70;4.10;;;;;;;7.36;76.89;97608.36;106705;1277;137138;-84
2023/05/08 09:43:25;;;;;;;3.50;3.00;;;;;;;7.50;79.27;97607.17;106721;1285;24923;-84
2023/05/08 09:45:51;;;;;;;3.70;3.20;;;;;;;7.62;78.08;97607.52;106677;1267;137408;-84
2023/05/08 09:48:36;;;;;;;4.40;3.00;;;;;;;7.70;77.77;97597.88;106662;1280;22903;-84
2023/05/08 09:51:06;;;;;;;3.80;3.00;;;;;;;7.81;76.68;97601.36;106664;1280;138222;-84
2023/05/08 09:53:32;;;;;;;3.70;3.30;;;;;;;7.83;76.54;97601.52;106712;1280;22543;-84
2023/05/08 09:56:11;;;;;;;3.30;2.90;;;;;;;7.87;76.51;97594.48;106717;1285;138037;-84
2023/05/08 09:58:46;;;;;;;6.60;3.50;;;;;;;7.86;77.09;97589.20;106685;1280;22666;-84
2023/05/08 10:01:39;;;;;;;3.40;3.10;;;;;;;7.89;75.71;97582.73;106876;1277;24457;-84
2023/05/08 10:04:17;;;;;;;4.40;3.20;;;;;;;7.83;76.86;97586.86;106636;1285;137173;-84
2023/05/08 10:07:00;;;;;;;3.70;3.30;;;;;;;7.87;76.14;97586.55;106731;1285;25421;-83
2023/05/08 10:09:31;;;;;;;4.20;3.00;;;;;;;7.92;77.23;97580.95;106506;1280;137917;-84
2023/05/08 10:12:03;;;;;;;2.90;2.60;;;;;;;8.04;76.67;97578.06;106759;1285;22707;-84
2023/05/08 10:14:29;;;;;;;4.80;3.00;;;;;;;8.15;75.91;97578.85;106610;1278;138237;-84
2023/05/08 10:17:27;;;;;;;;;;;;;;;;;;;;;
2023/05/08 10:20:55;;;;;;;3.80;3.00;;;;;;;8.41;73.51;97576.48;106660;1277;138383;-84
2023/05/08 10:24:22;;;;;;;5.70;3.40;;;;;;;8.56;74.77;97565.85;106827;1277;23436;-84
2023/05/08 10:27:59;;;;;;;4.80;3.50;;;;;;;8.59;74.28;97568.17;109370;1280;137387;-84
2023/05/08 10:31:29;;;;;;;6.20;3.20;;;;;;;8.59;71.36;97568.50;106611;1277;26779;-84
2023/05/08 10:34:55;;;;;;;4.50;3.00;;;;;;;8.47;73.04;97570.62;109478;1285;137726;-85
2023/05/08 10:38:15;;;;;;;4.10;3.50;;;;;;;8.52;72.96;97572.54;109697;1279;22165;-85
2023/05/08 10:41:25;;;;;;;;;;;;;;;;;;;;;
2023/05/08 10:44:45;;;;;;;;;;;;;;;;;;;;;
2023/05/08 10:48:13;;;;;;;5.10;3.20;;;;;;;8.61;72.75;97563.13;106584;1283;25821;-84
2023/05/08 10:51:33;;;;;;;4.20;3.10;;;;;;;8.71;72.65;97567.55;106621;1279;138006;-84
2023/05/08 10:55:05;;;;;;;;;;;;;;;;;;;;;
2023/05/08 10:58:19;;;;;;;;;;;;;;;;;;;;;
2023/05/08 11:01:55;;;;;;;;;;;;;;;;;;;;;
2023/05/08 11:05:16;;;;;;;3.40;3.00;;;;;;;8.82;71.06;97560.84;108141;1280;137505;-85
2023/05/08 11:08:55;;;;;;;5.60;3.90;;;;;;;8.89;71.38;97569.32;106699;1285;22546;-84
2023/05/08 11:12:32;;;;;;;7.40;4.30;;;;;;;8.93;71.16;97570.04;106594;1285;24389;-84
2023/05/08 11:16:15;;;;;;;5.50;3.40;;;;;;;8.97;72.00;97571.21;109213;1279;137347;-85
2023/05/08 11:19:48;;;;;;;;;;;;;;;;;;;;;
2023/05/08 11:23:15;;;;;;;4.80;3.90;;;;;;;8.91;71.55;97573.96;109212;1291;137625;-85
2023/05/08 11:26:41;;;;;;;4.50;2.70;;;;;;;8.93;69.24;97573.80;108407;1285;25315;-84
2023/05/08 11:30:02;;;;;;;;;;;;;;;;;;;;;
2023/05/08 11:33:36;;;;;;;;;;;;;;;;;;;;;
2023/05/08 11:37:16;;;;;;;4.00;2.70;;;;;;;9.33;68.82;97557.61;109539;1277;22610;-84
2023/05/08 11:40:28;;;;;;;;;;;;;;;;;;;;;
2023/05/08 11:43:34;;;;;;;;;;;;;;;;;;;;;
2023/05/08 11:47:24;;;;;;;4.10;3.00;;;;;;;9.31;66.24;97545.34;106615;1281;149488;-84
2023/05/08 11:50:41;;;;;;;4.30;3.00;;;;;;;9.28;66.91;97547.48;106712;1277;22583;-84
2023/05/08 11:54:08;;;;;;;6.00;3.70;;;;;;;9.28;67.43;97545.45;109654;1283;22696;-85
2023/05/08 11:57:27;;;;;;;;;;;;;;;;;;;;;
2023/05/08 12:00:54;;;;;;;5.70;4.30;;;;;;;9.25;67.82;97553.35;106675;1285;24217;-84
2023/05/08 12:04:21;;;;;;;6.60;4.40;;;;;;;9.23;68.32;97551.48;106689;1285;137137;-84
2023/05/08 12:07:47;;;;;;;4.90;4.40;;;;;;;9.21;67.96;97555.64;106559;1285;22676;-84
2023/05/08 12:11:20;;;;;;;7.40;3.90;;;;;;;9.16;68.25;97556.80;109475;1278;137471;-85
2023/05/08 12:14:47;;;;;;;6.30;4.90;;;;;;;9.14;69.34;97554.44;109586;1285;23000;-85
2023/05/08 12:18:13;;;;;;;5.70;4.60;;;;;;;9.16;68.82;97555.05;109763;1277;22832;-85
2023/05/08 12:21:38;;;;;;;4.50;3.70;;;;;;;9.20;69.56;97552.56;109521;1285;138165;-85
2023/05/08 12:28:27;;;;;;;4.40;3.80;;;;;;;9.46;68.45;97552.42;109685;1285;138415;-85
2023/05/08 12:31:54;;;;;;;6.20;4.50;;;;;;;9.53;68.56;97550.06;109619;1278;22824;-84
2023/05/08 12:35:10;;;;;;;4.80;3.80;;;;;;;9.53;67.16;97548.23;108225;1276;137331;-85
2023/05/08 12:38:43;;;;;;;4.80;4.00;;;;;;;9.51;67.55;97548.92;108809;1277;25222;-84
2023/05/08 12:42:10;;;;;;;3.80;3.50;;;;;;;9.53;68.89;97554.81;109663;1285;22303;-85
2023/05/08 12:45:37;;;;;;;4.90;3.20;;;;;;;9.49;65.75;97553.96;109584;1283;137339;-85
2023/05/08 12:49:06;;;;;;;6.40;3.40;;;;;;;9.50;65.87;97549.23;109579;1278;22219;-84
2023/05/08 12:52:25;;;;;;;;;;;;;;;;;;;;;
2023/05/08 12:56:07;;;;;;;4.20;3.80;;;;;;;9.51;65.85;97547.01;109656;1278;22203;-85
2023/05/08 12:59:34;;;;;;;3.90;3.50;;;;;;;9.51;64.83;97549.80;106243;1286;137330;-84
2023/05/08 13:03:01;;;;;;;5.90;3.40;;;;;;;9.52;64.93;97546.56;106182;1292;22909;-85
2023/05/08 13:06:21;;;;;;;7.00;4.00;;;;;;;9.59;64.27;97547.15;106084;1285;25018;-84
2023/05/08 13:09:47;;;;;;;4.30;3.60;;;;;;;9.73;65.55;97542.00;106696;1285;137813;-84
2023/05/08 13:13:14;;;;;;;5.10;4.20;;;;;;;9.83;63.97;97539.70;106591;1285;25249;-84
2023/05/08 13:16:38;;;;;;;;;;;;;;;;;;;;;
2023/05/08 13:20:06;;;;;;;3.40;2.80;;;;;;;9.77;64.31;97549.06;106466;1285;23914;-84
2023/05/08 13:23:32;;;;;;;3.70;3.30;;;;;;;9.81;64.36;97553.05;106707;1285;137893;-85
2023/05/08 13:26:59;;;;;;;4.60;3.50;;;;;;;9.79;63.39;97558.68;106628;1285;25233;-84
2023/05/08 13:30:26;;;;;;;5.10;3.70;;;;;;;9.74;63.28;97559.23;106664;1280;22534;-84
2023/05/08 13:33:41;;;;;;;;;;;;;;;;;;;;;
2023/05/08 13:37:06;;;;;;;;;;;;;;;;;;;;;
2023/05/08 13:40:34;;;;;;;4.50;3.30;;;;;;;9.78;64.60;97556.97;109568;1278;137860;-85
2023/05/08 13:43:46;;;;;;;3.90;3.30;;;;;;;9.85;63.49;97557.81;106849;1285;24377;-84